Time;durP1;ratioP1;P1;durP2;ratioP2;P2;SDS_P1;SDS_P2;PMS_P1;PMS_P2;Temp;Humidity;BMP_temperature;BMP_pressure;BME280_temperature;BME280_humidity;BME280_pressure;Samples;Min_cycle;Max_cycle;Signal;HPM_P1;HPM_P2
2023/04/08 00:02:20;;;;;;;19.67;5.15;;;7.90;99.90;;;;;;5013705;28;20121;-82
2023/04/08 00:04:45;;;;;;;5.97;5.40;;;7.90;99.90;;;;;;4999313;28;20022;-84
2023/04/08 00:07:11;;;;;;;21.83;5.45;;;7.90;99.90;;;;;;5018790;28;20034;-83
2023/04/08 00:09:37;;;;;;;33.92;6.65;;;7.80;99.90;;;;;;5010179;28;20148;-83
2023/04/08 00:12:03;;;;;;;20.65;7.25;;;7.80;99.90;;;;;;5012805;28;20018;-83
2023/04/08 00:14:29;;;;;;;33.83;7.60;;;7.70;99.90;;;;;;5001769;28;20029;-82
2023/04/08 00:16:54;;;;;;;44.50;7.30;;;7.60;99.90;;;;;;5014093;28;20017;-82
2023/04/08 00:19:22;;;;;;;13.73;6.45;;;7.60;99.90;;;;;;5009308;28;20593;-82
2023/04/08 00:21:48;;;;;;;13.85;6.28;;;7.70;99.90;;;;;;4995721;28;20102;-82
2023/04/08 00:24:14;;;;;;;7.70;5.75;;;7.60;99.90;;;;;;5002131;28;20036;-82
2023/04/08 00:26:40;;;;;;;6.82;6.07;;;7.70;99.90;;;;;;5002627;28;20022;-83
2023/04/08 00:29:05;;;;;;;6.75;5.93;;;7.70;99.90;;;;;;5005709;28;20014;-82
2023/04/08 00:31:31;;;;;;;27.23;6.68;;;7.70;99.90;;;;;;5004563;28;20030;-83
2023/04/08 00:33:57;;;;;;;18.88;6.60;;;7.70;99.90;;;;;;5019345;28;20106;-83
2023/04/08 00:36:22;;;;;;;15.27;6.35;;;7.70;99.90;;;;;;5014147;28;20030;-83
2023/04/08 00:38:50;;;;;;;11.93;6.70;;;7.70;99.90;;;;;;4994463;28;20166;-82
2023/04/08 00:41:19;;;;;;;22.98;6.82;;;7.70;99.90;;;;;;5013096;28;20038;-82
2023/04/08 00:43:44;;;;;;;19.25;6.47;;;7.60;99.90;;;;;;4996876;28;20484;-83
2023/04/08 00:46:10;;;;;;;16.98;6.22;;;7.60;99.90;;;;;;5001669;28;20021;-82
2023/04/08 00:48:36;;;;;;;7.00;5.78;;;7.70;99.90;;;;;;4999046;28;20531;-84
2023/04/08 00:51:02;;;;;;;7.90;6.28;;;7.70;99.90;;;;;;5007556;28;20413;-83
2023/04/08 00:53:30;;;;;;;12.35;6.88;;;7.80;99.90;;;;;;5002390;28;20034;-83
2023/04/08 00:55:56;;;;;;;11.70;6.90;;;7.80;99.90;;;;;;4996264;28;20259;-81
2023/04/08 00:58:22;;;;;;;9.10;6.93;;;7.90;99.90;;;;;;5000026;28;20243;-84
2023/04/08 01:01:02;;;;;;;11.25;7.55;;;7.80;99.90;;;;;;4998935;28;20034;-82
2023/04/08 01:03:48;;;;;;;8.50;6.75;;;7.80;99.90;;;;;;4993231;28;20034;-84
2023/04/08 01:06:22;;;;;;;10.05;7.05;;;7.90;99.90;;;;;;5025509;28;20062;-81
2023/04/08 01:08:51;;;;;;;10.43;7.35;;;8.00;99.90;;;;;;4992577;28;20030;-84
2023/04/08 01:11:17;;;;;;;11.75;7.40;;;8.00;99.90;;;;;;5012668;28;20463;-83
2023/04/08 01:13:45;;;;;;;8.57;6.45;;;7.90;99.90;;;;;;5011836;28;20041;-83
2023/04/08 01:16:15;;;;;;;9.15;6.80;;;8.00;99.90;;;;;;5011722;28;20022;-83
2023/04/08 01:18:43;;;;;;;8.77;6.45;;;8.00;99.90;;;;;;4998369;28;20017;-83
2023/04/08 01:21:11;;;;;;;9.75;6.85;;;8.00;99.90;;;;;;5010435;28;20521;-83
2023/04/08 01:23:51;;;;;;;10.63;6.75;;;8.10;99.90;;;;;;4992228;28;20029;-84
2023/04/08 01:26:22;;;;;;;8.27;6.82;;;8.10;99.90;;;;;;5012786;28;20079;-83
2023/04/08 01:28:51;;;;;;;8.70;7.00;;;8.10;99.90;;;;;;4999754;28;20041;-83
2023/04/08 01:31:18;;;;;;;12.35;8.80;;;8.10;99.90;;;;;;5012524;28;20029;-83
2023/04/08 01:33:46;;;;;;;20.02;8.52;;;8.20;99.90;;;;;;4991876;28;20404;-84
2023/04/08 01:36:13;;;;;;;17.17;10.60;;;8.20;99.90;;;;;;4993236;28;20048;-84
2023/04/08 01:38:40;;;;;;;16.85;9.10;;;8.20;99.90;;;;;;5010966;28;20037;-83
2023/04/08 01:41:10;;;;;;;33.22;9.77;;;8.20;99.90;;;;;;5012563;28;20045;-84
2023/04/08 01:43:42;;;;;;;46.08;9.98;;;8.20;99.90;;;;;;5009412;28;20257;-83
2023/04/08 01:46:12;;;;;;;42.72;10.00;;;8.20;99.90;;;;;;4989422;28;20049;-84
2023/04/08 01:48:42;;;;;;;48.60;10.48;;;8.20;99.90;;;;;;4993404;28;20030;-83
2023/04/08 01:51:08;;;;;;;39.95;9.77;;;8.10;99.90;;;;;;4994242;28;20112;-83
2023/04/08 01:53:34;;;;;;;32.92;9.25;;;8.10;99.90;;;;;;5000116;28;20044;-82
2023/04/08 01:56:08;;;;;;;32.47;9.55;;;8.10;99.90;;;;;;4998678;28;20124;-82
2023/04/08 01:58:41;;;;;;;42.03;10.45;;;8.10;99.90;;;;;;4993450;28;20049;-84
2023/04/08 02:01:12;;;;;;;53.28;9.85;;;8.00;99.90;;;;;;5011316;28;20025;-83
2023/04/08 02:03:41;;;;;;;41.78;10.00;;;7.90;99.90;;;;;;4994295;28;20041;-83
2023/04/08 02:06:07;;;;;;;32.97;9.82;;;7.90;99.90;;;;;;5012279;28;20028;-84
2023/04/08 02:08:36;;;;;;;31.10;8.68;;;7.90;99.90;;;;;;5014299;28;20040;-83
2023/04/08 02:11:02;;;;;;;39.10;8.57;;;7.90;99.90;;;;;;5012366;28;20494;-84
2023/04/08 02:13:31;;;;;;;48.30;8.40;;;7.70;99.90;;;;;;5013434;28;20026;-83
2023/04/08 02:16:21;;;;;;;27.85;8.68;;;7.60;99.90;;;;;;5010640;28;20079;-83
2023/04/08 02:19:14;;;;;;;20.48;7.20;;;7.60;99.90;;;;;;5003955;28;20038;-83
2023/04/08 02:22:06;;;;;;;18.38;7.47;;;7.60;99.90;;;;;;4993258;28;20511;-83
2023/04/08 02:24:34;;;;;;;37.90;7.43;;;7.60;99.90;;;;;;4989278;28;20033;-82
2023/04/08 02:27:03;;;;;;;24.08;7.97;;;7.50;99.90;;;;;;5012881;28;20030;-83
2023/04/08 02:29:30;;;;;;;51.33;7.50;;;7.50;99.90;;;;;;5006968;28;20021;-82
2023/04/08 02:31:57;;;;;;;39.45;7.78;;;7.50;99.90;;;;;;5008351;28;20510;-82
2023/04/08 02:34:24;;;;;;;43.47;7.72;;;7.50;99.90;;;;;;5000012;28;20025;-82
2023/04/08 02:36:50;;;;;;;49.83;7.85;;;7.40;99.90;;;;;;4994675;28;20108;-83
2023/04/08 02:39:16;;;;;;;29.15;7.50;;;7.30;99.90;;;;;;4993161;28;20548;-82
2023/04/08 02:41:42;;;;;;;38.20;8.25;;;7.20;99.90;;;;;;5012596;28;20036;-82
2023/04/08 02:44:08;;;;;;;35.33;7.45;;;7.20;99.90;;;;;;5000965;28;20038;-82
2023/04/08 02:46:34;;;;;;;38.58;8.02;;;7.10;99.90;;;;;;4998485;28;20521;-82
2023/04/08 02:49:02;;;;;;;29.67;7.05;;;7.10;99.90;;;;;;5006990;28;20191;-82
2023/04/08 02:51:28;;;;;;;43.40;8.90;;;7.10;99.90;;;;;;4994671;28;20036;-82
2023/04/08 02:53:54;;;;;;;25.20;7.68;;;7.10;99.90;;;;;;4993196;28;20017;-82
2023/04/08 02:56:20;;;;;;;31.60;7.13;;;7.10;99.90;;;;;;4998701;28;20045;-83
2023/04/08 02:58:46;;;;;;;38.05;7.32;;;6.90;99.90;;;;;;5007057;28;20447;-83
2023/04/08 03:01:11;;;;;;;39.60;7.35;;;6.80;99.90;;;;;;4997255;28;20030;-83
2023/04/08 03:03:37;;;;;;;31.85;7.22;;;6.80;99.90;;;;;;5011283;28;20168;-82
2023/04/08 03:06:02;;;;;;;36.58;6.75;;;6.80;99.90;;;;;;5000060;28;20025;-82
2023/04/08 03:08:35;;;;;;;30.23;6.50;;;6.70;99.90;;;;;;5010607;28;20397;-82
2023/04/08 03:11:01;;;;;;;49.25;7.07;;;6.60;99.90;;;;;;4991994;28;20305;-82
2023/04/08 03:13:28;;;;;;;48.10;7.95;;;6.60;99.90;;;;;;5024808;28;20121;-82
2023/04/08 03:15:56;;;;;;;32.50;7.18;;;6.60;99.90;;;;;;4996447;28;20108;-82
2023/04/08 03:18:22;;;;;;;26.88;7.28;;;6.60;99.90;;;;;;4992141;28;20113;-82
2023/04/08 03:20:47;;;;;;;50.92;7.43;;;6.60;99.90;;;;;;5010494;28;20155;-82
2023/04/08 03:23:13;;;;;;;58.83;7.28;;;6.50;99.90;;;;;;5000071;28;20148;-82
2023/04/08 03:25:39;;;;;;;43.08;7.80;;;6.50;99.90;;;;;;5012911;28;20642;-84
2023/04/08 03:28:07;;;;;;;38.10;7.32;;;6.50;99.90;;;;;;5012166;28;20022;-82
2023/04/08 03:30:32;;;;;;;31.02;7.03;;;6.30;99.90;;;;;;4990893;28;20036;-82
2023/04/08 03:32:58;;;;;;;47.10;7.43;;;6.20;99.90;;;;;;5012598;28;20755;-82
2023/04/08 03:35:24;;;;;;;30.70;7.82;;;6.10;99.90;;;;;;5002877;28;20537;-83
2023/04/08 03:37:50;;;;;;;39.15;7.90;;;6.10;99.90;;;;;;5012170;28;20474;-82
2023/04/08 03:40:18;;;;;;;60.50;7.57;;;6.10;99.90;;;;;;4995918;28;20394;-83
2023/04/08 03:42:44;;;;;;;59.80;8.10;;;6.10;99.90;;;;;;4993671;28;20088;-82
2023/04/08 03:45:09;;;;;;;86.85;8.57;;;6.10;99.90;;;;;;5021653;28;20032;-84
2023/04/08 03:47:35;;;;;;;61.92;8.30;;;6.10;99.90;;;;;;5004359;28;20040;-82
2023/04/08 03:50:01;;;;;;;55.47;8.00;;;6.10;99.90;;;;;;5004999;28;20068;-83
2023/04/08 03:52:26;;;;;;;38.28;8.13;;;6.10;99.90;;;;;;5011033;28;20026;-83
2023/04/08 03:54:52;;;;;;;51.22;7.32;;;6.10;99.90;;;;;;5009253;28;20549;-83
2023/04/08 03:57:17;;;;;;;41.15;7.32;;;6.10;99.90;;;;;;4997803;28;20172;-83
2023/04/08 03:59:43;;;;;;;29.50;7.68;;;6.00;99.90;;;;;;5013808;28;20382;-82
2023/04/08 04:02:08;;;;;;;35.60;7.70;;;6.00;99.90;;;;;;5009474;28;20065;-83
2023/04/08 04:04:35;;;;;;;28.50;7.43;;;5.90;99.90;;;;;;5003180;28;20022;-83
2023/04/08 04:07:01;;;;;;;42.35;7.63;;;5.90;99.90;;;;;;4998079;28;20286;-83
2023/04/08 04:09:27;;;;;;;26.25;6.80;;;5.80;99.90;;;;;;5015553;28;20082;-82
2023/04/08 04:11:52;;;;;;;21.25;7.40;;;5.70;99.90;;;;;;5012928;28;20018;-83
2023/04/08 04:14:18;;;;;;;37.60;7.25;;;5.70;99.90;;;;;;5014130;28;20543;-83
2023/04/08 04:16:44;;;;;;;25.92;7.63;;;5.70;99.90;;;;;;5001727;28;20029;-82
2023/04/08 04:19:11;;;;;;;39.53;7.70;;;5.70;99.90;;;;;;5013596;28;20026;-83
2023/04/08 04:21:37;;;;;;;34.05;7.47;;;5.70;99.90;;;;;;5013410;28;20075;-83
2023/04/08 04:24:03;;;;;;;17.75;7.47;;;5.70;99.90;;;;;;4996498;28;20564;-82
2023/04/08 04:26:31;;;;;;;13.25;7.38;;;5.80;99.90;;;;;;4995689;28;20504;-84
2023/04/08 04:28:56;;;;;;;18.92;7.22;;;5.80;99.90;;;;;;4995187;28;20492;-83
2023/04/08 04:31:26;;;;;;;38.42;8.10;;;5.70;99.90;;;;;;5012662;28;20014;-85
2023/04/08 04:33:53;;;;;;;31.35;6.90;;;5.60;99.90;;;;;;5012816;28;20049;-82
2023/04/08 04:36:18;;;;;;;95.70;8.68;;;5.50;99.90;;;;;;4999791;28;20038;-84
2023/04/08 04:38:44;;;;;;;28.50;7.03;;;5.40;99.90;;;;;;4993261;28;20024;-83
2023/04/08 04:41:10;;;;;;;26.50;7.10;;;5.30;99.90;;;;;;4994704;28;20459;-83
2023/04/08 04:43:36;;;;;;;29.80;7.18;;;5.30;99.90;;;;;;5007226;28;20034;-83
2023/04/08 04:46:05;;;;;;;23.98;6.05;;;5.30;99.90;;;;;;4997169;28;20087;-82
2023/04/08 04:48:33;;;;;;;57.55;7.07;;;5.20;99.90;;;;;;5012677;28;20356;-82
2023/04/08 04:51:02;;;;;;;76.95;7.40;;;5.00;99.90;;;;;;5012958;28;20070;-82
2023/04/08 04:53:29;;;;;;;56.15;7.13;;;4.90;99.90;;;;;;5006983;28;20121;-82
2023/04/08 04:55:55;;;;;;;49.78;7.07;;;5.00;99.90;;;;;;5006746;28;20026;-82
2023/04/08 04:58:23;;;;;;;50.33;6.80;;;4.90;99.90;;;;;;5009165;28;20536;-82
2023/04/08 05:00:49;;;;;;;96.28;7.82;;;4.80;99.90;;;;;;5009104;28;20018;-82
2023/04/08 05:03:15;;;;;;;36.65;6.63;;;4.80;99.90;;;;;;4992175;28;20034;-83
2023/04/08 05:05:40;;;;;;;52.33;6.53;;;4.60;99.90;;;;;;5011352;28;20460;-82
2023/04/08 05:08:08;;;;;;;55.00;5.97;;;4.50;99.90;;;;;;5010989;28;20104;-83
2023/04/08 05:10:34;;;;;;;67.43;6.70;;;4.50;99.90;;;;;;5014194;28;20026;-82
2023/04/08 05:12:59;;;;;;;33.72;6.20;;;4.40;99.90;;;;;;5015159;28;20572;-82
2023/04/08 05:15:25;;;;;;;56.90;6.85;;;4.50;99.90;;;;;;5000723;28;20032;-88
2023/04/08 05:17:51;;;;;;;36.50;6.72;;;4.40;99.90;;;;;;5012060;28;20544;-89
2023/04/08 05:20:16;;;;;;;14.52;5.53;;;4.40;99.90;;;;;;5012647;28;20022;-83
2023/04/08 05:22:44;;;;;;;19.63;6.05;;;4.40;99.90;;;;;;4998535;28;20038;-82
2023/04/08 05:25:10;;;;;;;11.98;6.18;;;4.40;99.90;;;;;;5008436;28;20037;-82
2023/04/08 05:27:39;;;;;;;26.52;5.35;;;4.40;99.90;;;;;;5015658;28;20026;-82
2023/04/08 05:30:05;;;;;;;27.50;6.35;;;4.50;99.90;;;;;;5000373;28;20603;-82
2023/04/08 05:32:31;;;;;;;27.35;6.57;;;4.50;99.90;;;;;;5002168;28;20088;-83
2023/04/08 05:34:59;;;;;;;37.28;6.88;;;4.40;99.90;;;;;;5012393;28;20046;-82
2023/04/08 05:37:25;;;;;;;61.70;6.82;;;4.40;99.90;;;;;;4999488;28;20037;-82
2023/04/08 05:39:50;;;;;;;29.98;6.43;;;4.40;99.90;;;;;;5010587;28;20018;-82
2023/04/08 05:42:16;;;;;;;20.90;6.03;;;4.40;99.90;;;;;;5013440;28;20063;-84
2023/04/08 05:44:42;;;;;;;15.05;5.53;;;4.40;99.90;;;;;;5016484;28;20022;-82
2023/04/08 05:47:08;;;;;;;30.23;6.57;;;4.40;99.90;;;;;;5016248;28;20489;-82
2023/04/08 05:49:34;;;;;;;10.35;5.35;;;4.50;99.90;;;;;;5010796;28;20030;-82
2023/04/08 05:52:00;;;;;;;6.68;6.07;;;4.50;99.90;;;;;;5010430;28;20379;-82
2023/04/08 05:54:26;;;;;;;9.82;5.75;;;4.60;99.90;;;;;;5008343;28;20028;-81
2023/04/08 05:56:51;;;;;;;6.53;5.90;;;4.60;99.90;;;;;;5011648;28;20033;-83
2023/04/08 05:59:17;;;;;;;7.55;5.85;;;4.70;99.90;;;;;;5010756;28;20042;-83
2023/04/08 06:01:43;;;;;;;6.90;6.20;;;4.70;99.90;;;;;;5000922;28;20018;-82
2023/04/08 06:04:08;;;;;;;8.43;6.32;;;4.80;99.90;;;;;;5010461;28;20702;-83
2023/04/08 06:06:36;;;;;;;5.82;5.35;;;4.80;99.90;;;;;;5000297;28;20021;-83
2023/04/08 06:09:01;;;;;;;7.20;5.80;;;4.70;99.90;;;;;;5013133;28;20493;-83
2023/04/08 06:11:29;;;;;;;6.75;6.15;;;4.80;99.90;;;;;;5000090;28;20391;-84
2023/04/08 06:13:57;;;;;;;9.93;7.30;;;4.90;99.90;;;;;;5009495;28;20021;-83
2023/04/08 06:16:23;;;;;;;6.78;6.05;;;5.00;99.90;;;;;;4997273;28;20112;-83
2023/04/08 06:18:49;;;;;;;6.93;5.63;;;5.10;99.90;;;;;;5006204;28;20545;-83
2023/04/08 06:21:14;;;;;;;7.35;6.65;;;5.20;99.90;;;;;;5011027;28;20028;-83
2023/04/08 06:23:40;;;;;;;7.40;6.25;;;5.30;99.90;;;;;;5011269;28;20455;-82
2023/04/08 06:26:05;;;;;;;8.50;7.47;;;5.40;99.90;;;;;;4993493;28;20014;-82
2023/04/08 06:28:31;;;;;;;9.88;7.35;;;5.60;99.90;;;;;;5009989;28;20103;-82
2023/04/08 06:30:58;;;;;;;8.73;7.68;;;5.70;99.90;;;;;;5002000;28;20032;-82
2023/04/08 06:33:24;;;;;;;8.18;7.25;;;5.80;99.90;;;;;;5010328;28;20029;-83
2023/04/08 06:35:49;;;;;;;8.38;7.22;;;6.00;99.90;;;;;;5007958;28;20034;-83
2023/04/08 06:38:15;;;;;;;7.70;7.00;;;6.10;99.90;;;;;;4995565;28;20477;-83
2023/04/08 06:40:41;;;;;;;7.93;6.78;;;6.30;99.90;;;;;;5012859;28;20401;-83
2023/04/08 06:43:06;;;;;;;7.93;6.57;;;6.40;99.90;;;;;;5010822;28;20383;-83
2023/04/08 06:45:33;;;;;;;6.53;5.93;;;6.50;99.90;;;;;;5012994;28;20423;-82
2023/04/08 06:47:59;;;;;;;6.90;5.80;;;6.50;99.90;;;;;;4997617;28;20029;-84
2023/04/08 06:50:25;;;;;;;8.82;7.15;;;6.40;99.90;;;;;;5009834;28;20025;-82
2023/04/08 06:52:51;;;;;;;7.55;6.70;;;6.50;99.90;;;;;;5011105;28;20242;-84
2023/04/08 06:55:18;;;;;;;8.60;6.60;;;6.70;99.90;;;;;;4989451;28;20393;-84
2023/04/08 06:57:44;;;;;;;8.70;7.45;;;6.70;99.90;;;;;;5000389;28;20046;-83
2023/04/08 07:00:10;;;;;;;7.70;7.00;;;6.90;99.90;;;;;;5010925;28;20052;-83
2023/04/08 07:02:36;;;;;;;13.07;7.93;;;7.00;99.90;;;;;;4995928;28;20367;-83
2023/04/08 07:05:01;;;;;;;8.80;7.05;;;7.00;99.90;;;;;;4998716;28;20603;-84
2023/04/08 07:07:27;;;;;;;8.52;7.18;;;7.00;99.90;;;;;;5006846;28;20051;-83
2023/04/08 07:09:52;;;;;;;10.02;7.45;;;7.30;99.90;;;;;;5002601;28;20026;-83
2023/04/08 07:12:18;;;;;;;8.68;6.80;;;7.30;99.90;;;;;;5007413;28;20120;-84
2023/04/08 07:14:44;;;;;;;9.27;7.40;;;7.20;99.90;;;;;;5014586;28;20350;-83
2023/04/08 07:17:09;;;;;;;8.32;6.88;;;7.30;99.90;;;;;;5000812;28;20053;-83
2023/04/08 07:19:36;;;;;;;9.27;7.25;;;7.40;99.90;;;;;;4996471;28;20029;-83
2023/04/08 07:22:02;;;;;;;9.27;7.05;;;7.50;99.90;;;;;;4997270;28;20048;-83
2023/04/08 07:24:27;;;;;;;9.98;7.28;;;7.40;99.90;;;;;;4992686;28;20029;-84
2023/04/08 07:26:55;;;;;;;8.25;7.32;;;7.60;99.90;;;;;;4998999;28;20359;-84
2023/04/08 07:29:20;;;;;;;9.30;7.30;;;7.50;99.90;;;;;;4993156;28;20032;-83
2023/04/08 07:31:46;;;;;;;10.20;7.63;;;7.70;99.90;;;;;;5010663;28;20030;-83
2023/04/08 07:34:11;;;;;;;9.68;7.38;;;7.80;99.90;;;;;;5010253;28;20469;-83
2023/04/08 07:36:39;;;;;;;11.43;7.70;;;8.00;99.90;;;;;;5007711;28;20533;-82
2023/04/08 07:39:07;;;;;;;10.25;7.40;;;8.30;99.90;;;;;;4993215;28;20409;-83
2023/04/08 07:41:33;;;;;;;8.25;7.05;;;8.40;99.90;;;;;;5001893;28;20040;-83
2023/04/08 07:43:59;;;;;;;9.27;8.18;;;8.50;99.90;;;;;;4996807;28;20033;-84
2023/04/08 07:46:27;;;;;;;11.35;8.55;;;8.70;99.90;;;;;;5005708;28;20080;-84
2023/04/08 07:48:53;;;;;;;13.45;8.00;;;8.80;99.90;;;;;;5007487;28;20037;-83
2023/04/08 07:51:18;;;;;;;11.45;9.00;;;8.90;99.90;;;;;;4997596;28;20488;-84
2023/04/08 07:53:44;;;;;;;13.02;8.57;;;9.10;99.90;;;;;;5006538;28;20025;-82
2023/04/08 07:56:14;;;;;;;15.23;8.82;;;9.20;99.90;;;;;;5008706;28;20030;-81
2023/04/08 07:58:40;;;;;;;11.38;8.98;;;9.20;99.90;;;;;;5004136;28;20018;-82
2023/04/08 08:01:20;;;;;;;10.98;7.97;;;9.50;99.90;;;;;;5008965;28;20974;-83
2023/04/08 08:03:49;;;;;;;12.88;8.07;;;9.60;99.90;;;;;;5010397;28;20128;-84
2023/04/08 08:06:17;;;;;;;10.38;7.93;;;9.70;99.90;;;;;;4993506;28;20030;-81
2023/04/08 08:08:43;;;;;;;12.50;8.82;;;9.70;99.90;;;;;;5009257;28;20021;-83
2023/04/08 08:11:09;;;;;;;10.35;8.35;;;10.00;99.90;;;;;;5006218;28;20080;-83
2023/04/08 08:13:35;;;;;;;13.02;7.82;;;10.20;99.90;;;;;;4998557;28;20124;-82
2023/04/08 08:16:00;;;;;;;9.75;8.18;;;10.30;99.90;;;;;;4989557;28;20021;-83
2023/04/08 08:18:26;;;;;;;11.13;8.50;;;10.40;99.90;;;;;;5009746;28;20086;-96
2023/04/08 08:20:52;;;;;;;15.10;8.70;;;10.40;99.90;;;;;;5020762;28;20497;-95
2023/04/08 08:23:18;;;;;;;11.25;8.00;;;10.70;99.90;;;;;;5007032;28;20639;-95
2023/04/08 08:25:46;;;;;;;9.43;7.97;;;11.00;99.90;;;;;;5035184;28;20071;-95
2023/04/08 08:28:12;;;;;;;11.57;7.85;;;11.10;99.90;;;;;;5034929;28;20014;-83
2023/04/08 08:30:38;;;;;;;10.43;7.63;;;10.90;99.90;;;;;;5018080;28;20425;-82
2023/04/08 08:33:03;;;;;;;10.90;8.38;;;10.80;99.90;;;;;;5016097;28;20034;-81
2023/04/08 08:35:29;;;;;;;14.18;8.93;;;10.80;99.90;;;;;;5017022;28;20038;-84
2023/04/08 08:37:55;;;;;;;13.88;8.45;;;10.70;99.90;;;;;;5012650;28;20113;-82
2023/04/08 08:40:21;;;;;;;12.90;8.27;;;10.80;99.90;;;;;;5017503;28;20053;-82
2023/04/08 08:42:51;;;;;;;12.00;8.90;;;11.00;99.90;;;;;;5006605;28;20032;-82
2023/04/08 08:45:18;;;;;;;10.10;8.05;;;11.20;99.90;;;;;;5018106;28;20056;-83
2023/04/08 08:47:44;;;;;;;13.05;8.20;;;11.20;99.90;;;;;;5006912;28;20419;-83
2023/04/08 08:50:10;;;;;;;14.38;8.50;;;11.30;99.90;;;;;;5018741;28;20022;-83
2023/04/08 08:52:35;;;;;;;12.00;8.35;;;11.30;99.90;;;;;;5003256;28;20414;-83
2023/04/08 08:55:01;;;;;;;10.95;8.70;;;11.40;99.90;;;;;;5018768;28;20033;-83
2023/04/08 08:57:27;;;;;;;13.18;8.15;;;11.50;99.90;;;;;;5014997;28;20042;-83
2023/04/08 08:59:52;;;;;;;14.90;8.82;;;11.60;99.90;;;;;;5015779;28;20037;-83
2023/04/08 09:02:26;;;;;;;14.55;9.30;;;11.60;99.90;;;;;;5014275;28;20030;-83
2023/04/08 09:05:00;;;;;;;14.00;8.65;;;11.70;99.90;;;;;;5016850;28;20050;-82
2023/04/08 09:07:27;;;;;;;13.52;8.80;;;11.80;99.90;;;;;;5016915;28;20026;-83
2023/04/08 09:09:55;;;;;;;12.07;8.57;;;11.80;99.90;;;;;;5014207;28;20075;-82
2023/04/08 09:12:23;;;;;;;14.13;10.55;;;11.90;99.90;;;;;;5008042;28;20136;-82
2023/04/08 09:14:49;;;;;;;11.95;9.18;;;12.10;99.90;;;;;;5008340;28;20044;-83
2023/04/08 09:17:16;;;;;;;12.63;9.07;;;12.50;99.90;;;;;;5016753;28;20026;-84
2023/04/08 09:20:10;;;;;;;15.32;9.57;;;12.60;99.90;;;;;;4998624;28;20025;-83
2023/04/08 09:22:55;;;;;;;13.80;8.77;;;13.10;99.90;;;;;;5005818;28;20033;-83
2023/04/08 09:25:26;;;;;;;11.40;7.63;;;13.90;99.90;;;;;;5014149;28;20034;-83
2023/04/08 09:27:53;;;;;;;10.57;7.30;;;14.20;99.90;;;;;;5016484;28;20076;-83
2023/04/08 09:30:20;;;;;;;10.85;8.23;;;14.80;99.90;;;;;;5010938;28;20061;-84
2023/04/08 09:32:51;;;;;;;11.45;8.23;;;15.30;99.90;;;;;;5011516;28;20493;-84
2023/04/08 09:35:20;;;;;;;17.20;7.93;;;15.70;99.90;;;;;;5014941;28;20026;-83
2023/04/08 09:37:46;;;;;;;10.50;7.22;;;16.20;99.90;;;;;;5001958;28;20137;-85
2023/04/08 09:40:15;;;;;;;14.60;7.30;;;16.70;99.90;;;;;;5013081;28;20022;-84
2023/04/08 09:42:51;;;;;;;7.50;6.60;;;17.40;99.90;;;;;;5021389;28;20543;-84
2023/04/08 09:45:17;;;;;;;11.60;7.00;;;16.40;99.90;;;;;;5020532;28;20111;-84
2023/04/08 09:48:03;;;;;;;10.60;7.03;;;15.80;99.90;;;;;;5017878;28;20060;-84
2023/04/08 09:50:39;;;;;;;9.43;6.80;;;15.20;99.90;;;;;;5021877;28;20579;-84
2023/04/08 09:53:18;;;;;;;15.88;7.72;;;14.80;99.90;;;;;;5017468;28;20076;-84
2023/04/08 09:55:50;;;;;;;10.80;7.22;;;14.60;99.90;;;;;;5019781;28;20791;-84
2023/04/08 09:58:26;;;;;;;9.75;7.78;;;14.40;99.90;;;;;;5016131;28;20470;-85
2023/04/08 10:00:53;;;;;;;12.35;7.18;;;14.40;99.90;;;;;;5016717;28;20483;-85
2023/04/08 10:03:45;;;;;;;8.40;7.07;;;14.50;99.90;;;;;;5014280;28;20060;-84
2023/04/08 10:06:14;;;;;;;14.98;7.35;;;14.50;99.90;;;;;;5023449;28;20439;-85
2023/04/08 10:08:40;;;;;;;8.50;6.90;;;14.60;99.90;;;;;;5014968;28;20492;-85
2023/04/08 10:11:06;;;;;;;11.73;7.15;;;14.60;99.90;;;;;;5018777;28;20473;-84
2023/04/08 10:13:33;;;;;;;11.32;7.20;;;14.30;99.90;;;;;;5012890;28;20029;-84
2023/04/08 10:16:20;;;;;;;9.90;7.15;;;14.30;99.90;;;;;;5022127;28;20029;-84
2023/04/08 10:18:46;;;;;;;9.52;7.78;;;14.10;99.90;;;;;;5024118;28;20476;-84
2023/04/08 10:21:31;;;;;;;9.85;7.32;;;14.00;99.90;;;;;;5020765;28;20059;-84
2023/04/08 10:23:58;;;;;;;15.85;7.82;;;14.00;99.90;;;;;;5021821;28;20124;-85
2023/04/08 10:26:56;;;;;;;10.10;7.03;;;14.10;99.90;;;;;;5016216;28;20017;-83
2023/04/08 10:29:26;;;;;;;12.70;7.15;;;14.00;99.90;;;;;;4973891;28;20037;-83
2023/04/08 10:31:51;;;;;;;9.15;6.88;;;14.20;99.90;;;;;;5027399;28;20456;-83
2023/04/08 10:34:25;;;;;;;11.35;7.20;;;14.10;99.90;;;;;;5018502;28;20096;-85
2023/04/08 10:36:54;;;;;;;10.40;7.10;;;14.00;99.90;;;;;;5030377;28;20025;-84
2023/04/08 10:39:23;;;;;;;7.30;5.60;;;13.90;99.90;;;;;;5024659;28;20539;-84
2023/04/08 10:41:50;;;;;;;9.20;6.50;;;13.80;99.90;;;;;;5019926;28;20037;-83
2023/04/08 10:44:20;;;;;;;10.30;7.00;;;13.70;99.90;;;;;;5022409;28;20029;-84
2023/04/08 10:46:47;;;;;;;9.00;6.40;;;13.60;99.90;;;;;;5022396;28;20496;-84
2023/04/08 10:49:13;;;;;;;7.78;6.30;;;13.80;99.90;;;;;;5023708;28;20049;-85
2023/04/08 10:51:41;;;;;;;8.70;6.65;;;14.00;99.90;;;;;;5014695;28;20026;-83
2023/04/08 10:54:07;;;;;;;8.13;6.20;;;14.20;99.90;;;;;;5012954;28;20029;-84
2023/04/08 10:56:35;;;;;;;9.30;5.97;;;14.40;99.90;;;;;;5185625;23;20129;-83
2023/04/08 10:59:00;;;;;;;11.25;6.35;;;14.30;99.90;;;;;;4975171;28;20093;-85
2023/04/08 11:01:27;;;;;;;10.40;6.82;;;14.30;99.90;;;;;;4966225;28;20035;-86
2023/04/08 11:03:55;;;;;;;10.20;6.25;;;14.20;99.90;;;;;;5767472;22;20103;-96
2023/04/08 11:06:22;;;;;;;9.45;6.68;;;14.10;99.90;;;;;;5000245;28;20046;-96
2023/04/08 11:08:48;;;;;;;8.02;6.55;;;14.10;99.90;;;;;;5015930;28;20113;-96
2023/04/08 11:11:18;;;;;;;11.65;7.10;;;14.20;99.90;;;;;;5023422;28;20045;-95
2023/04/08 11:13:52;;;;;;;8.15;6.65;;;14.20;99.90;;;;;;5045807;28;20101;-96
2023/04/08 11:16:36;;;;;;;12.23;7.03;;;14.20;99.90;;;;;;5584988;23;20069;-96
2023/04/08 11:19:04;;;;;;;10.25;7.00;;;14.00;99.90;;;;;;4969404;28;20286;-96
2023/04/08 11:21:34;;;;;;;10.75;6.85;;;14.00;99.90;;;;;;4972388;28;20046;-96
2023/04/08 11:23:59;;;;;;;10.10;6.80;;;13.90;99.90;;;;;;4988992;28;20042;-96
2023/04/08 11:26:26;;;;;;;9.18;6.97;;;14.20;99.90;;;;;;4967083;28;20864;-96
2023/04/08 11:28:54;;;;;;;10.38;6.95;;;14.90;99.90;;;;;;4955226;28;20035;-96
2023/04/08 11:33:55;;;;;;;7.43;5.80;;;16.50;99.90;;;;;;5019394;23;20090;-96
2023/04/08 11:41:37;;;;;;;7.22;6.18;;;17.70;98.90;;;;;;5018728;28;20060;-96
2023/04/08 11:44:04;;;;;;;7.03;5.82;;;17.70;98.00;;;;;;4988427;28;20030;-95
2023/04/08 11:46:30;;;;;;;7.95;6.18;;;17.50;98.40;;;;;;4986050;28;20022;-95
2023/04/08 11:49:00;;;;;;;6.50;5.70;;;17.30;98.20;;;;;;4984059;28;20038;-95
2023/04/08 11:56:48;;;;;;;7.53;5.65;;;17.00;97.60;;;;;;4964195;28;20051;-96
2023/04/08 12:01:51;;;;;;;7.30;5.68;;;16.40;98.30;;;;;;5856998;23;20067;-83
2023/04/08 12:04:16;;;;;;;9.68;6.03;;;16.40;98.10;;;;;;4984626;28;20117;-83
2023/04/08 12:06:45;;;;;;;9.07;5.43;;;16.40;97.80;;;;;;4985322;28;20419;-83
2023/04/08 12:09:14;;;;;;;6.03;4.80;;;16.00;99.30;;;;;;4984387;28;20463;-85
2023/04/08 12:11:40;;;;;;;5.50;4.95;;;15.90;99.90;;;;;;4984737;28;20034;-82
2023/04/08 12:14:08;;;;;;;9.23;5.10;;;16.10;99.70;;;;;;4981562;28;20026;-83
2023/04/08 12:16:34;;;;;;;6.88;5.57;;;16.30;99.90;;;;;;4986018;28;20022;-82
2023/04/08 12:18:59;;;;;;;6.68;5.70;;;16.60;99.90;;;;;;4981557;28;20077;-84
2023/04/08 12:21:26;;;;;;;6.50;4.97;;;17.20;99.90;;;;;;4985334;28;20021;-83
2023/04/08 12:23:52;;;;;;;9.50;5.82;;;17.60;98.30;;;;;;4968062;28;20145;-83
2023/04/08 12:26:18;;;;;;;9.63;5.70;;;17.60;98.00;;;;;;4966595;28;20245;-85
2023/04/08 12:28:45;;;;;;;14.63;5.95;;;17.70;97.40;;;;;;4964245;28;20041;-86
2023/04/08 12:31:11;;;;;;;6.97;5.70;;;17.50;98.30;;;;;;4967896;28;20027;-84
2023/04/08 12:33:36;;;;;;;9.57;5.68;;;17.50;97.80;;;;;;4984467;28;20019;-84
2023/04/08 12:36:02;;;;;;;8.35;6.20;;;17.20;98.30;;;;;;4963008;28;20436;-84
2023/04/08 12:38:28;;;;;;;8.73;6.18;;;16.90;98.40;;;;;;4984253;28;20072;-84
2023/04/08 12:40:54;;;;;;;6.53;5.55;;;16.60;99.90;;;;;;4963835;28;20704;-85
2023/04/08 12:43:21;;;;;;;8.65;6.00;;;16.30;99.90;;;;;;4982832;28;20045;-84
2023/04/08 12:45:47;;;;;;;8.60;6.05;;;16.30;99.90;;;;;;4967289;28;20022;-84
2023/04/08 12:48:13;;;;;;;7.88;6.10;;;16.40;99.90;;;;;;4964358;28;20034;-84
2023/04/08 12:50:39;;;;;;;8.65;5.80;;;16.30;99.90;;;;;;4985055;28;20022;-85
2023/04/08 12:53:04;;;;;;;7.80;6.40;;;16.20;99.90;;;;;;4985116;28;20114;-83
2023/04/08 12:55:32;;;;;;;7.65;6.00;;;16.10;99.90;;;;;;4968759;28;20229;-84
2023/04/08 12:57:58;;;;;;;10.13;6.90;;;15.90;99.90;;;;;;4984665;28;20026;-83
2023/04/08 13:00:25;;;;;;;10.50;6.97;;;15.90;99.90;;;;;;4984567;28;20037;-84
2023/04/08 13:02:50;;;;;;;7.88;6.45;;;16.00;99.90;;;;;;5804353;23;20066;-85
2023/04/08 13:05:16;;;;;;;7.97;6.53;;;15.90;99.90;;;;;;4963723;28;20089;-83